Bogalusa, LA

6:16 AM CDT on September 28, 2016 (GMT -0500)
Carr Memorial

Weather History for KBXA - December, 2013

Change the Weather History Date:

Tuesday, December 3, 2013

  Actual Average Record
Temperature  
Mean Temperature 70 °F -  
Max Temperature 78 °F 66 °F 78 °F (2013)
Min Temperature 61 °F 42 °F 39 °F (2015)
Cooling Degree Days 4    
Growing Degree Days 20 (Base 50)    
Moisture  
Dew Point 64 °F    
Average Humidity 83    
Maximum Humidity 92    
Minimum Humidity 60    
Precipitation  
Precipitation 0.00 in - - ()
Sea Level Pressure  
Sea Level Pressure 29.79 in    
Wind  
Wind Speed 6 mph (SSW)    
Max Wind Speed 14 mph    
Max Gust Speed 21 mph    
Visibility 8 miles    
Events Rain , Thunderstorm    
Averages and records for this station are not official NWS values.
T = Trace of Precipitation, MM = Missing Value Source: NWS Daily Summary

Daily Weather History Graph

Daily Weather History Graph

Search for Another Location

Airport or City:

Trip Planner

Search our weather history database for the weather conditions in past years. The results will help you decide how hot, cold, wet, or windy it might be!

Date:

Astronomy

Dec. 03, 2013 Rise Set
Actual Time 6:41 AM CST 4:57 PM CST
Civil Twilight 6:14 AM CST 5:23 PM CST
Nautical Twilight 5:45 AM CST 5:53 PM CST
Astronomical Twilight 5:15 AM CST 6:22 PM CST
Moon 7:12 AM CST (12/3) 5:59 PM CST (12/3)
Length of Visible Light 11h 08m
Length of Day
10h 16m
New Moon, 1% of the Moon is Illuminated
Dec 3
New Moon
Dec 9
First Quarter
Dec 17
Full
Dec 25
Last Quarter
Jan 1
New

Hourly Weather History & Observations

Time (CST) Temp. Dew Point Humidity Pressure Visibility Wind Dir Wind Speed Gust Speed Precip Events Conditions
12:15 AM 61.5 °F 58.8 °F 91% 29.81 in 4.0 mi SSW 4.6 mph - N/A   Mist
12:35 AM 62.6 °F 59.9 °F 91% 29.81 in 5.0 mi SSW 5.8 mph - N/A   Mist
12:55 AM 63.0 °F 60.3 °F 91% 29.80 in 5.0 mi SSW 5.8 mph - N/A   Mist
1:15 AM 63.3 °F 60.6 °F 91% 29.80 in 5.0 mi SW 3.5 mph - N/A   Mist
1:35 AM 63.1 °F 60.4 °F 91% 29.80 in 4.0 mi Calm Calm - N/A   Mist
1:55 AM 63.3 °F 60.6 °F 91% 29.80 in 4.0 mi Calm Calm - N/A   Mist
2:15 AM 63.9 °F 61.2 °F 91% 29.80 in 4.0 mi South 3.5 mph - N/A   Mist
2:35 AM 63.9 °F 61.2 °F 91% 29.80 in 3.0 mi SSW 3.5 mph - N/A   Mist
2:55 AM 63.7 °F 61.0 °F 91% 29.80 in 3.0 mi SSW 3.5 mph - N/A   Mist
3:15 AM 63.7 °F 61.0 °F 91% 29.79 in 5.0 mi South 4.6 mph - N/A   Mist
3:35 AM 63.9 °F 61.2 °F 91% 29.79 in 3.0 mi SSW 4.6 mph - N/A   Mist
3:55 AM 64.2 °F 61.5 °F 91% 29.78 in 3.0 mi SSW 4.6 mph - N/A   Mist
4:15 AM 64.6 °F 61.9 °F 91% 29.77 in 4.0 mi SSW 4.6 mph - N/A   Mist
4:35 AM 64.8 °F 62.1 °F 91% 29.77 in 2.5 mi SSW 5.8 mph - N/A Rain Rain
4:55 AM 64.9 °F 62.2 °F 91% 29.77 in 1.5 mi SSW 3.5 mph - N/A   Drizzle
5:15 AM 65.1 °F 62.6 °F 92% 29.78 in 2.0 mi SSW 4.6 mph - N/A   Mist
5:35 AM 65.5 °F 62.8 °F 91% 29.78 in 3.0 mi SSW 4.6 mph - N/A   Mist
5:55 AM 66.0 °F 63.3 °F 91% 29.79 in 4.0 mi SSW 4.6 mph - N/A Thunderstorm Mist
6:15 AM 66.2 °F 63.5 °F 91% 29.79 in 5.0 mi Calm Calm - N/A Rain Light Rain
6:35 AM 66.2 °F 63.5 °F 91% 29.79 in 7.0 mi SSW 4.6 mph - N/A   Unknown
6:55 AM 66.6 °F 63.7 °F 90% 29.79 in 7.0 mi SW 6.9 mph - N/A   Unknown
7:15 AM 66.7 °F 63.9 °F 90% 29.79 in 5.0 mi SW 3.5 mph - N/A   Mist
7:35 AM 66.9 °F 63.7 °F 89% 29.80 in 5.0 mi SSW 6.9 mph - N/A   Mist
7:55 AM 67.1 °F 63.9 °F 89% 29.81 in 5.0 mi SSW 5.8 mph - N/A   Mist
8:15 AM 67.5 °F 64.0 °F 89% 29.82 in 7.0 mi SSW 6.9 mph - N/A   Unknown
8:35 AM 68.0 °F 63.9 °F 87% 29.83 in 10.0 mi Calm Calm - N/A   Unknown
8:55 AM 68.4 °F 64.2 °F 87% 29.83 in 10.0 mi SSW 4.6 mph - N/A   Unknown
9:15 AM 68.9 °F 64.6 °F 86% 29.83 in 10.0 mi Calm Calm - N/A   Unknown
9:35 AM 69.1 °F 64.8 °F 86% 29.83 in 10.0 mi South 5.8 mph - N/A   Unknown
9:55 AM 69.8 °F 64.8 °F 84% 29.84 in 10.0 mi SSW 9.2 mph - N/A   Unknown
10:15 AM 70.5 °F 64.8 °F 82% 29.84 in 10.0 mi SSW 11.5 mph - N/A   Unknown
10:35 AM 70.2 °F 65.3 °F 85% 29.83 in 10.0 mi South 5.8 mph - N/A   Unknown
11:15 AM 71.1 °F 65.5 °F 82% 29.82 in 10.0 mi SSW 9.2 mph 16.1 mph N/A Rain Light Rain
11:35 AM 71.2 °F 66.0 °F 84% 29.81 in 7.0 mi SSW 9.2 mph - N/A   Unknown
11:55 AM 72.5 °F 66.0 °F 80% 29.80 in 10.0 mi SSW 8.1 mph - N/A   Unknown
12:15 PM 72.9 °F 65.5 °F 78% 29.79 in 10.0 mi SW 10.4 mph - N/A   Unknown
12:35 PM 75.7 °F 65.8 °F 71% 29.77 in 10.0 mi SSW 11.5 mph - N/A   Unknown
12:55 PM 76.6 °F 64.9 °F 67% 29.77 in 10.0 mi SW 11.5 mph 17.3 mph N/A   Unknown
1:15 PM 77.4 °F 64.6 °F 65% 29.76 in 10.0 mi SW 10.4 mph 20.7 mph N/A   Unknown
1:35 PM 76.8 °F 65.1 °F 67% 29.75 in 10.0 mi SW 11.5 mph 19.6 mph N/A   Unknown
1:55 PM 78.1 °F 64.6 °F 63% 29.75 in 10.0 mi SW 13.8 mph 20.7 mph N/A   Unknown
2:15 PM 77.9 °F 64.4 °F 63% 29.75 in 10.0 mi SW 11.5 mph 17.3 mph N/A   Unknown
2:35 PM 77.9 °F 64.4 °F 63% 29.75 in 10.0 mi SSW 10.4 mph 16.1 mph N/A   Unknown
2:55 PM 78.3 °F 63.5 °F 60% 29.74 in 10.0 mi SSW 9.2 mph - N/A   Unknown
3:15 PM 77.9 °F 63.9 °F 62% 29.74 in 10.0 mi SW 11.5 mph 17.3 mph N/A   Unknown
3:35 PM 77.0 °F 64.4 °F 65% 29.74 in 10.0 mi SSW 10.4 mph 16.1 mph N/A   Unknown
3:55 PM 75.9 °F 64.2 °F 67% 29.74 in 10.0 mi SSW 9.2 mph 17.3 mph N/A   Unknown
4:15 PM 75.4 °F 64.6 °F 69% 29.75 in 10.0 mi SSW 6.9 mph - N/A   Unknown
4:35 PM 74.7 °F 64.8 °F 71% 29.75 in 10.0 mi SSW 5.8 mph - N/A   Unknown
4:55 PM 73.8 °F 64.9 °F 74% 29.76 in 10.0 mi South 5.8 mph - N/A   Unknown
5:15 PM 72.9 °F 64.9 °F 76% 29.76 in 10.0 mi South 9.2 mph - N/A   Unknown
5:35 PM 72.3 °F 65.3 °F 78% 29.76 in 10.0 mi South 9.2 mph - N/A   Unknown
5:55 PM 71.4 °F 64.6 °F 79% 29.77 in 10.0 mi South 8.1 mph - N/A   Unknown
6:15 PM 70.7 °F 64.4 °F 80% 29.77 in 10.0 mi SSW 5.8 mph - N/A   Unknown
6:35 PM 69.8 °F 64.0 °F 82% 29.78 in 10.0 mi SSW 6.9 mph - N/A   Unknown
6:55 PM 69.6 °F 64.0 °F 82% 29.78 in 10.0 mi South 8.1 mph - N/A   Unknown
7:15 PM 69.1 °F 64.2 °F 84% 29.79 in 10.0 mi South 8.1 mph - N/A   Unknown
7:35 PM 69.3 °F 64.6 °F 85% 29.80 in 10.0 mi South 9.2 mph - N/A   Unknown
7:55 PM 68.9 °F 64.6 °F 86% 29.80 in 10.0 mi South 8.1 mph - N/A   Unknown
8:15 PM 68.9 °F 65.1 °F 88% 29.80 in 10.0 mi SSW 9.2 mph - N/A   Unknown
8:35 PM 69.3 °F 65.5 °F 88% 29.81 in 10.0 mi South 5.8 mph - N/A   Unknown
8:55 PM 69.8 °F 66.0 °F 88% 29.82 in 10.0 mi SSW 8.1 mph - N/A   Overcast
9:15 PM 70.2 °F 66.2 °F 87% 29.82 in 10.0 mi SSW 10.4 mph - N/A   Overcast
9:35 PM 70.7 °F 66.4 °F 86% 29.83 in 10.0 mi SSW 10.4 mph - N/A   Overcast
9:55 PM 70.9 °F 66.4 °F 86% 29.83 in 10.0 mi SSW 10.4 mph - N/A   Overcast
10:15 PM 71.1 °F 66.6 °F 86% 29.83 in 10.0 mi SSW 12.7 mph 17.3 mph N/A   Overcast
10:40 PM 71.4 °F 66.6 °F 85% 29.84 in 10.0 mi SSW 9.2 mph 16.1 mph N/A   Overcast
10:55 PM 71.1 °F 66.6 °F 86% 29.84 in 10.0 mi SSW 10.4 mph - N/A   Overcast
11:15 PM 71.1 °F 66.6 °F 86% 29.84 in 10.0 mi SSW 11.5 mph - N/A   Overcast
11:35 PM 70.9 °F 66.6 °F 86% 29.85 in 7.0 mi SSW 9.2 mph - N/A   Overcast
11:55 PM 70.9 °F 66.4 °F 86% 29.84 in 10.0 mi SSW 10.4 mph 16.1 mph N/A   Overcast